createdAt,value
2023-03-18T00:00:51.454Z,7.86
2023-03-18T00:03:18.960Z,7.74
2023-03-18T00:05:46.565Z,7.70
2023-03-18T00:08:13.997Z,7.55
2023-03-18T00:10:41.513Z,7.69
2023-03-18T00:13:08.853Z,7.73
2023-03-18T00:15:37.248Z,7.81
2023-03-18T00:18:04.963Z,7.81
2023-03-18T00:20:41.752Z,7.75
2023-03-18T00:23:09.598Z,7.72
2023-03-18T00:25:37.986Z,7.37
2023-03-18T00:28:07.144Z,7.04
2023-03-18T00:30:38.673Z,7.20
2023-03-18T00:33:06.276Z,7.24
2023-03-18T00:35:34.537Z,7.30
2023-03-18T00:38:04.055Z,7.41
2023-03-18T00:40:43.351Z,7.36
2023-03-18T00:43:12.648Z,7.32
2023-03-18T00:45:41.162Z,7.07
2023-03-18T00:48:10.936Z,7.18
2023-03-18T00:50:38.337Z,7.13
2023-03-18T00:53:05.885Z,7.08
2023-03-18T00:55:33.492Z,7.10
2023-03-18T00:58:01.700Z,6.97
2023-03-18T01:00:29.959Z,7.01
2023-03-18T01:02:57.683Z,7.06
2023-03-18T01:05:25.084Z,7.20
2023-03-18T01:07:53.164Z,7.12
2023-03-18T01:10:20.757Z,7.20
2023-03-18T01:12:48.276Z,7.24
2023-03-18T01:15:18.790Z,7.06
2023-03-18T01:17:46.856Z,7.00
2023-03-18T01:20:17.983Z,6.84
2023-03-18T01:22:47.753Z,6.81
2023-03-18T01:25:16.430Z,6.62
2023-03-18T01:27:47.913Z,6.74
2023-03-18T01:30:16.028Z,6.78
2023-03-18T01:32:44.078Z,6.70
2023-03-18T01:35:12.704Z,6.73
2023-03-18T01:37:46.839Z,6.68
2023-03-18T01:40:16.348Z,6.69
2023-03-18T01:42:53.129Z,6.70
2023-03-18T01:45:28.681Z,6.75
2023-03-18T01:47:58.728Z,6.74
2023-03-18T01:50:32.324Z,6.87
2023-03-18T01:53:06.899Z,6.85
2023-03-18T01:55:36.297Z,6.75
2023-03-18T01:58:10.201Z,6.66
2023-03-18T02:00:44.785Z,6.66
2023-03-18T02:03:13.055Z,6.52
2023-03-18T02:05:43.405Z,6.60
2023-03-18T02:08:10.786Z,6.54
2023-03-18T02:10:38.721Z,6.54
2023-03-18T02:13:09.905Z,6.55
2023-03-18T02:15:51.281Z,6.52
2023-03-18T02:18:33.816Z,6.47
2023-03-18T02:21:22.669Z,6.29
2023-03-18T02:24:20.789Z,6.40
2023-03-18T02:27:19.272Z,6.44
2023-03-18T02:29:48.379Z,6.47
2023-03-18T02:32:22.324Z,6.47
2023-03-18T02:34:50.945Z,6.42
2023-03-18T02:37:18.411Z,6.45
2023-03-18T02:39:45.822Z,6.25
2023-03-18T02:42:14.858Z,6.48
2023-03-18T02:44:49.197Z,6.55
2023-03-18T02:47:35.373Z,6.36
2023-03-18T02:50:03.846Z,6.29
2023-03-18T02:52:31.667Z,6.48
2023-03-18T02:54:59.314Z,6.38
2023-03-18T02:57:28.731Z,6.28
2023-03-18T02:59:57.621Z,6.07
2023-03-18T03:02:27.206Z,6.25
2023-03-18T03:04:54.791Z,6.25
2023-03-18T03:07:26.631Z,6.20
2023-03-18T03:09:54.808Z,6.17
2023-03-18T03:12:23.044Z,6.18
2023-03-18T03:14:54.831Z,6.15
2023-03-18T03:17:22.765Z,6.22
2023-03-18T03:19:51.113Z,6.07
2023-03-18T03:22:18.548Z,6.10
2023-03-18T03:24:47.603Z,6.03
2023-03-18T03:27:15.017Z,6.15
2023-03-18T03:29:43.480Z,6.16
2023-03-18T03:32:11.953Z,6.02
2023-03-18T03:34:39.521Z,6.13
2023-03-18T03:37:07.185Z,6.03
2023-03-18T03:39:34.584Z,5.91
2023-03-18T03:42:02.016Z,5.88
2023-03-18T03:44:30.279Z,5.89
2023-03-18T03:46:57.734Z,5.82
2023-03-18T03:49:25.232Z,5.80
2023-03-18T03:51:52.672Z,5.74
2023-03-18T03:54:21.645Z,5.64
2023-03-18T03:56:49.175Z,5.75
2023-03-18T03:59:17.674Z,5.83
2023-03-18T04:02:02.282Z,5.80
2023-03-18T04:04:33.562Z,5.90
2023-03-18T04:07:03.254Z,5.78
2023-03-18T04:09:30.760Z,5.89
2023-03-18T04:11:58.393Z,5.96
2023-03-18T04:14:26.281Z,6.03
2023-03-18T04:16:56.028Z,5.78
2023-03-18T04:19:24.715Z,5.96
2023-03-18T04:21:59.105Z,5.82
2023-03-18T04:24:26.604Z,5.90
2023-03-18T04:26:53.986Z,5.91
2023-03-18T04:29:22.718Z,5.86
2023-03-18T04:31:50.961Z,6.07
2023-03-18T04:34:18.879Z,6.10
2023-03-18T04:36:46.597Z,6.14
2023-03-18T04:39:14.563Z,6.13
2023-03-18T04:41:42.541Z,6.05
2023-03-18T04:44:11.943Z,6.12
2023-03-18T04:46:45.326Z,5.93
2023-03-18T04:49:13.676Z,5.90
2023-03-18T04:51:42.404Z,5.72
2023-03-18T04:54:19.076Z,5.83
2023-03-18T04:56:47.469Z,5.79
2023-03-18T04:59:15.237Z,5.84
2023-03-18T05:01:42.988Z,5.70
2023-03-18T05:04:11.545Z,5.56
2023-03-18T05:06:46.766Z,5.63
2023-03-18T05:09:15.366Z,5.69
2023-03-18T05:11:44.861Z,5.62
2023-03-18T05:14:20.439Z,5.70
2023-03-18T05:16:49.665Z,5.55
2023-03-18T05:19:18.092Z,5.53
2023-03-18T05:21:54.046Z,5.54
2023-03-18T05:24:22.133Z,5.38
2023-03-18T05:26:49.642Z,5.40
2023-03-18T05:29:19.143Z,5.53
2023-03-18T05:31:58.027Z,5.45
2023-03-18T05:34:27.239Z,5.60
2023-03-18T05:36:56.000Z,5.61
2023-03-18T05:39:23.740Z,5.67
2023-03-18T05:41:52.477Z,5.64
2023-03-18T05:44:26.309Z,5.51
2023-03-18T05:46:55.481Z,5.37
2023-03-18T05:49:48.328Z,5.47
2023-03-18T05:52:21.760Z,5.47
2023-03-18T05:54:51.239Z,5.49
2023-03-18T05:57:25.111Z,5.46
2023-03-18T05:59:58.403Z,5.35
2023-03-18T06:02:27.808Z,5.41
2023-03-18T06:04:55.595Z,5.41
2023-03-18T06:07:24.440Z,5.83
2023-03-18T06:09:52.375Z,5.89
2023-03-18T06:12:23.081Z,5.99
2023-03-18T06:14:50.670Z,6.18
2023-03-18T06:17:18.751Z,6.24
2023-03-18T06:19:46.566Z,6.37
2023-03-18T06:22:15.384Z,6.47
2023-03-18T06:24:43.565Z,6.35
2023-03-18T06:27:11.400Z,6.41
2023-03-18T06:29:42.792Z,6.45
2023-03-18T06:32:14.035Z,6.49
2023-03-18T06:34:41.955Z,6.37
2023-03-18T06:37:10.886Z,6.54
2023-03-18T06:39:40.767Z,6.48
2023-03-18T06:42:10.974Z,6.60
2023-03-18T06:44:50.557Z,6.61
2023-03-18T06:47:24.562Z,6.58
2023-03-18T06:49:56.970Z,6.97
2023-03-18T06:52:31.953Z,7.21
2023-03-18T06:55:06.600Z,7.26
2023-03-18T06:57:37.918Z,7.64
2023-03-18T07:00:07.054Z,7.76
2023-03-18T07:02:39.395Z,7.83
2023-03-18T07:05:08.592Z,8.18
2023-03-18T07:07:37.810Z,8.93
2023-03-18T07:10:07.481Z,9.40
2023-03-18T07:12:35.292Z,9.27
2023-03-18T07:15:03.997Z,9.15
2023-03-18T07:17:31.759Z,9.69
2023-03-18T07:19:59.114Z,10.38
2023-03-18T07:22:26.644Z,12.35
2023-03-18T07:24:54.943Z,13.83
2023-03-18T07:27:23.599Z,14.85
2023-03-18T07:29:51.583Z,14.12
2023-03-18T07:32:19.883Z,13.74
2023-03-18T07:34:48.494Z,13.17
2023-03-18T07:37:16.962Z,12.39
2023-03-18T07:39:44.372Z,11.99
2023-03-18T07:42:11.879Z,11.76
2023-03-18T07:44:45.998Z,11.44
2023-03-18T07:47:15.106Z,11.57
2023-03-18T07:49:42.568Z,11.66
2023-03-18T07:52:10.520Z,11.80
2023-03-18T07:54:37.991Z,11.52
2023-03-18T07:57:07.006Z,11.27
2023-03-18T07:59:34.465Z,10.86
2023-03-18T08:02:02.603Z,11.04
2023-03-18T08:04:30.866Z,11.09
2023-03-18T08:06:58.531Z,11.31
2023-03-18T08:09:27.730Z,11.33
2023-03-18T08:11:55.154Z,11.33
2023-03-18T08:14:22.511Z,11.33
2023-03-18T08:16:49.944Z,11.35
2023-03-18T08:19:17.349Z,11.20
2023-03-18T08:21:45.126Z,11.38
2023-03-18T08:24:12.600Z,11.55
2023-03-18T08:26:40.098Z,11.73
2023-03-18T08:29:07.485Z,12.00
2023-03-18T08:31:35.384Z,11.01
2023-03-18T08:34:02.785Z,11.65
2023-03-18T08:36:30.278Z,11.88
2023-03-18T08:38:57.691Z,11.79
2023-03-18T08:41:26.220Z,11.96
2023-03-18T08:43:55.499Z,12.04
2023-03-18T08:46:23.521Z,11.98
2023-03-18T08:48:51.530Z,11.82
2023-03-18T08:51:18.957Z,12.00
2023-03-18T08:53:46.323Z,12.09
2023-03-18T08:56:14.837Z,12.30
2023-03-18T08:58:42.261Z,12.40
2023-03-18T09:01:11.847Z,12.25
2023-03-18T09:03:39.487Z,12.25
2023-03-18T09:06:07.574Z,12.58
2023-03-18T09:08:34.963Z,13.36
2023-03-18T09:11:02.469Z,13.89
2023-03-18T09:13:29.938Z,14.46
2023-03-18T09:15:58.127Z,13.94
2023-03-18T09:18:25.749Z,13.77
2023-03-18T09:20:53.695Z,13.38
2023-03-18T09:23:21.468Z,13.44
2023-03-18T09:25:50.282Z,13.82
2023-03-18T09:28:17.942Z,13.93
2023-03-18T09:30:45.315Z,13.54
2023-03-18T09:33:13.785Z,13.66
2023-03-18T09:35:41.298Z,13.22
2023-03-18T09:38:14.400Z,12.80
2023-03-18T09:40:49.986Z,12.90
2023-03-18T09:43:32.293Z,12.81
2023-03-18T09:46:28.429Z,12.84
2023-03-18T09:49:00.629Z,12.79
2023-03-18T09:51:41.837Z,12.81
2023-03-18T09:54:17.214Z,12.98
2023-03-18T09:56:45.678Z,13.13
2023-03-18T09:59:42.205Z,12.98
2023-03-18T10:02:22.316Z,12.98
2023-03-18T10:04:56.226Z,13.06
2023-03-18T10:07:29.681Z,13.07
2023-03-18T10:10:09.575Z,12.79
2023-03-18T10:12:43.528Z,12.80
2023-03-18T10:15:14.796Z,12.88
2023-03-18T10:18:10.887Z,12.92
2023-03-18T10:21:12.353Z,12.93
2023-03-18T10:23:47.876Z,13.10
2023-03-18T10:26:24.504Z,13.15
2023-03-18T10:29:01.704Z,13.26
2023-03-18T10:31:46.399Z,13.16
2023-03-18T10:34:19.172Z,13.16
2023-03-18T10:36:51.149Z,13.03
2023-03-18T10:39:23.434Z,13.21
2023-03-18T10:41:53.575Z,13.21
2023-03-18T10:44:24.210Z,13.17
2023-03-18T10:47:15.513Z,13.45
2023-03-18T10:49:51.168Z,13.59
2023-03-18T10:52:37.483Z,13.60
2023-03-18T10:55:17.971Z,13.62
2023-03-18T10:57:45.784Z,13.63
2023-03-18T11:00:28.014Z,13.62
2023-03-18T11:02:57.142Z,13.33
2023-03-18T11:05:28.567Z,13.37
2023-03-18T11:08:04.970Z,13.40
2023-03-18T11:10:40.515Z,13.45
2023-03-18T11:13:08.056Z,13.29
2023-03-18T11:15:44.301Z,13.48
2023-03-18T11:18:19.607Z,13.37
2023-03-18T11:20:55.469Z,13.53
2023-03-18T11:23:48.643Z,13.52
2023-03-18T11:26:24.019Z,13.54
2023-03-18T11:28:59.876Z,13.49
2023-03-18T11:31:28.127Z,13.55
2023-03-18T11:34:08.847Z,13.70
2023-03-18T11:36:38.069Z,13.69
2023-03-18T11:39:06.884Z,13.84
2023-03-18T11:41:37.988Z,13.88
2023-03-18T11:44:17.856Z,13.91
2023-03-18T11:46:50.180Z,13.95
2023-03-18T11:49:23.716Z,13.88
2023-03-18T11:52:09.553Z,13.94
2023-03-18T11:55:01.021Z,13.88
2023-03-18T11:57:55.029Z,14.01
2023-03-18T12:00:55.910Z,14.07
2023-03-18T12:03:45.583Z,14.08
2023-03-18T12:06:26.527Z,14.22
2023-03-18T12:09:01.177Z,14.35
2023-03-18T12:11:38.538Z,14.31
2023-03-18T12:14:14.357Z,14.13
2023-03-18T12:16:48.807Z,14.17
2023-03-18T12:20:00.231Z,14.10
2023-03-18T12:22:50.600Z,14.22
2023-03-18T12:25:32.936Z,14.20
2023-03-18T12:28:28.916Z,14.45
2023-03-18T12:31:14.097Z,14.59
2023-03-18T12:33:47.720Z,14.43
2023-03-18T12:36:39.807Z,14.46
2023-03-18T12:39:26.489Z,14.53
2023-03-18T12:42:16.796Z,14.49
2023-03-18T12:45:02.258Z,14.53
2023-03-18T12:47:48.083Z,14.65
2023-03-18T12:50:20.013Z,14.61
2023-03-18T12:52:58.973Z,15.10
2023-03-18T12:55:33.753Z,15.02
2023-03-18T12:58:05.903Z,14.78
2023-03-18T13:00:40.134Z,14.88
2023-03-18T13:03:24.736Z,14.78
2023-03-18T13:06:08.701Z,14.83
2023-03-18T13:08:43.940Z,14.73
2023-03-18T13:11:32.338Z,14.90
2023-03-18T13:14:07.381Z,14.52
2023-03-18T13:16:36.690Z,14.49
2023-03-18T13:19:04.804Z,14.59
2023-03-18T13:21:40.181Z,14.68
2023-03-18T13:24:21.923Z,14.81
2023-03-18T13:26:52.401Z,14.98
2023-03-18T13:29:38.482Z,14.89
2023-03-18T13:32:55.788Z,14.89
2023-03-18T13:35:28.978Z,14.70
2023-03-18T13:38:17.463Z,14.79
2023-03-18T13:41:22.470Z,14.94
2023-03-18T13:43:51.275Z,14.92
2023-03-18T13:46:27.460Z,14.90
2023-03-18T13:49:01.236Z,14.86
2023-03-18T13:51:28.830Z,14.92
2023-03-18T13:54:06.818Z,14.88
2023-03-18T13:56:50.514Z,14.96
2023-03-18T13:59:33.087Z,14.92
2023-03-18T14:02:23.075Z,14.98
2023-03-18T14:04:52.144Z,15.02
2023-03-18T14:07:21.711Z,15.06
2023-03-18T14:10:18.795Z,15.02
2023-03-18T14:12:48.067Z,15.07
2023-03-18T14:15:15.798Z,15.11
2023-03-18T14:17:58.383Z,15.05
2023-03-18T14:20:38.605Z,15.03
2023-03-18T14:23:24.320Z,15.01
2023-03-18T14:26:02.459Z,14.97
2023-03-18T14:28:42.003Z,15.11
2023-03-18T14:31:21.243Z,15.28
2023-03-18T14:34:04.565Z,15.19
2023-03-18T14:36:53.395Z,15.25
2023-03-18T14:39:30.286Z,15.29
2023-03-18T14:42:01.987Z,15.29
2023-03-18T14:45:01.757Z,15.31
2023-03-18T14:47:57.910Z,15.24
2023-03-18T14:50:35.508Z,15.05
2023-03-18T14:53:05.608Z,15.14
2023-03-18T14:55:35.846Z,15.11
2023-03-18T14:58:04.074Z,15.05
2023-03-18T15:00:36.907Z,15.17
2023-03-18T15:03:13.339Z,15.06
2023-03-18T15:05:43.274Z,15.05
2023-03-18T15:08:19.186Z,15.09
2023-03-18T15:10:50.444Z,15.20
2023-03-18T15:13:21.299Z,15.18
2023-03-18T15:15:50.644Z,15.25
2023-03-18T15:18:29.143Z,15.26
2023-03-18T15:21:21.468Z,15.26
2023-03-18T15:23:54.636Z,15.16
2023-03-18T15:26:29.712Z,15.11
2023-03-18T15:29:00.355Z,15.23
2023-03-18T15:32:10.063Z,15.18
2023-03-18T15:34:41.597Z,15.13
2023-03-18T15:37:40.879Z,15.06
2023-03-18T15:40:23.496Z,15.10
2023-03-18T15:42:54.934Z,15.09
2023-03-18T15:45:27.251Z,15.09
2023-03-18T15:47:58.315Z,15.07
2023-03-18T15:50:30.729Z,14.97
2023-03-18T15:53:25.958Z,15.12
2023-03-18T15:55:56.071Z,15.14
2023-03-18T15:58:27.508Z,15.12
2023-03-18T16:00:56.695Z,15.10
2023-03-18T16:03:27.229Z,15.17
2023-03-18T16:05:55.330Z,15.11
2023-03-18T16:08:23.666Z,15.04
2023-03-18T16:10:54.984Z,14.96
2023-03-18T16:13:29.478Z,15.03
2023-03-18T16:15:56.930Z,15.05
2023-03-18T16:18:24.605Z,15.03
2023-03-18T16:20:53.893Z,14.96
2023-03-18T16:23:21.396Z,14.87
2023-03-18T16:25:52.306Z,14.84
2023-03-18T16:28:28.285Z,14.91
2023-03-18T16:30:58.713Z,14.89
2023-03-18T16:33:26.262Z,14.76
2023-03-18T16:35:58.746Z,14.80
2023-03-18T16:38:27.094Z,14.80
2023-03-18T16:40:56.108Z,14.77
2023-03-18T16:43:29.023Z,14.65
2023-03-18T16:46:06.341Z,14.62
2023-03-18T16:48:33.949Z,14.59
2023-03-18T16:51:03.007Z,14.62
2023-03-18T16:53:31.621Z,14.53
2023-03-18T16:56:25.895Z,14.51
2023-03-18T16:58:53.532Z,14.45
2023-03-18T17:01:21.478Z,14.44
2023-03-18T17:03:49.613Z,14.41
2023-03-18T17:06:17.115Z,14.38
2023-03-18T17:08:44.635Z,14.32
2023-03-18T17:11:18.375Z,14.31
2023-03-18T17:13:46.739Z,14.20
2023-03-18T17:16:18.205Z,14.22
2023-03-18T17:18:45.645Z,14.21
2023-03-18T17:21:13.043Z,14.12
2023-03-18T17:23:41.731Z,14.14
2023-03-18T17:26:14.515Z,14.10
2023-03-18T17:28:45.050Z,14.04
2023-03-18T17:31:12.640Z,13.96
2023-03-18T17:33:40.589Z,13.91
2023-03-18T17:36:08.639Z,14.00
2023-03-18T17:38:36.411Z,13.98
2023-03-18T17:41:12.306Z,13.92
2023-03-18T17:43:40.201Z,13.81
2023-03-18T17:46:08.053Z,13.87
2023-03-18T17:48:39.747Z,13.87
2023-03-18T17:51:12.113Z,13.84
2023-03-18T17:53:44.025Z,13.77
2023-03-18T17:56:14.180Z,13.77
2023-03-18T17:58:47.195Z,13.74
2023-03-18T18:01:17.656Z,13.69
2023-03-18T18:03:45.466Z,13.59
2023-03-18T18:06:21.078Z,13.57
2023-03-18T18:08:49.283Z,13.56
2023-03-18T18:11:35.336Z,13.47
2023-03-18T18:14:14.901Z,13.41
2023-03-18T18:16:43.645Z,13.37
2023-03-18T18:19:11.659Z,13.37
2023-03-18T18:21:39.262Z,13.33
2023-03-18T18:24:33.513Z,13.33
2023-03-18T18:27:00.953Z,13.28
2023-03-18T18:29:29.697Z,13.16
2023-03-18T18:31:57.427Z,13.18
2023-03-18T18:34:24.939Z,13.17
2023-03-18T18:36:52.388Z,13.20
2023-03-18T18:39:21.086Z,13.30
2023-03-18T18:41:48.894Z,13.29
2023-03-18T18:44:16.506Z,13.29
2023-03-18T18:46:43.987Z,13.11
2023-03-18T18:49:23.216Z,12.78
2023-03-18T18:51:55.245Z,12.82
2023-03-18T18:54:24.044Z,12.52
2023-03-18T18:56:52.264Z,12.47
2023-03-18T18:59:24.881Z,12.39
2023-03-18T19:01:53.790Z,12.21
2023-03-18T19:04:21.980Z,12.30
2023-03-18T19:06:51.003Z,12.11
2023-03-18T19:09:20.904Z,11.99
2023-03-18T19:11:50.193Z,11.99
2023-03-18T19:14:19.268Z,12.01
2023-03-18T19:16:48.257Z,11.90
2023-03-18T19:19:19.337Z,11.89
2023-03-18T19:21:47.187Z,11.77
2023-03-18T19:24:26.936Z,11.81
2023-03-18T19:26:56.411Z,11.79
2023-03-18T19:29:24.139Z,11.78
2023-03-18T19:31:51.696Z,11.73
2023-03-18T19:34:20.870Z,11.61
2023-03-18T19:36:52.783Z,11.71
2023-03-18T19:39:22.090Z,11.60
2023-03-18T19:41:49.558Z,11.61
2023-03-18T19:44:19.239Z,11.43
2023-03-18T19:46:48.437Z,11.44
2023-03-18T19:49:26.450Z,11.34
2023-03-18T19:51:55.395Z,11.30
2023-03-18T19:54:35.514Z,11.38
2023-03-18T19:57:06.905Z,11.42
2023-03-18T19:59:39.183Z,11.45
2023-03-18T20:02:32.585Z,11.35
2023-03-18T20:05:03.004Z,11.36
2023-03-18T20:07:32.836Z,11.24
2023-03-18T20:10:00.356Z,11.42
2023-03-18T20:12:36.640Z,11.37
2023-03-18T20:15:12.218Z,11.34
2023-03-18T20:17:44.891Z,11.28
2023-03-18T20:20:18.100Z,11.35
2023-03-18T20:22:58.556Z,11.18
2023-03-18T20:25:29.255Z,11.35
2023-03-18T20:27:58.083Z,11.34
2023-03-18T20:30:31.812Z,11.29
2023-03-18T20:33:00.600Z,11.15
2023-03-18T20:35:30.346Z,11.13
2023-03-18T20:38:00.853Z,11.24
2023-03-18T20:40:29.946Z,11.26
2023-03-18T20:42:57.689Z,11.16
2023-03-18T20:45:26.271Z,11.18
2023-03-18T20:47:53.638Z,11.07
2023-03-18T20:50:26.509Z,11.14
2023-03-18T20:52:54.489Z,11.03
2023-03-18T20:55:26.737Z,11.07
2023-03-18T20:57:54.467Z,11.09
2023-03-18T21:00:24.640Z,11.02
2023-03-18T21:02:54.264Z,10.97
2023-03-18T21:05:22.120Z,11.02
2023-03-18T21:07:49.524Z,10.89
2023-03-18T21:10:22.735Z,10.86
2023-03-18T21:12:50.980Z,10.95
2023-03-18T21:15:24.817Z,10.99
2023-03-18T21:17:52.811Z,10.89
2023-03-18T21:20:25.731Z,10.91
2023-03-18T21:22:54.465Z,10.85
2023-03-18T21:25:27.700Z,10.93
2023-03-18T21:27:55.336Z,10.94
2023-03-18T21:30:23.932Z,10.93
2023-03-18T21:32:51.617Z,10.98
2023-03-18T21:35:25.697Z,10.99
2023-03-18T21:37:54.202Z,10.88
2023-03-18T21:40:23.885Z,10.88
2023-03-18T21:42:51.714Z,10.96
2023-03-18T21:45:21.371Z,10.99
2023-03-18T21:47:48.794Z,10.91
2023-03-18T21:50:25.225Z,10.87
2023-03-18T21:52:54.207Z,10.93
2023-03-18T21:55:22.268Z,10.74
2023-03-18T21:57:49.789Z,10.70
2023-03-18T22:00:20.227Z,10.65
2023-03-18T22:02:48.442Z,10.65
2023-03-18T22:05:19.654Z,10.62
2023-03-18T22:07:47.777Z,10.62
2023-03-18T22:10:17.552Z,10.75
2023-03-18T22:12:45.548Z,10.73
2023-03-18T22:15:24.711Z,10.72
2023-03-18T22:17:52.476Z,10.69
2023-03-18T22:20:19.915Z,10.72
2023-03-18T22:22:47.476Z,10.65
2023-03-18T22:25:32.896Z,10.72
2023-03-18T22:28:00.933Z,10.70
2023-03-18T22:30:30.917Z,10.66
2023-03-18T22:33:00.129Z,10.70
2023-03-18T22:35:29.342Z,10.69
2023-03-18T22:37:56.924Z,10.65
2023-03-18T22:40:27.333Z,10.66
2023-03-18T22:43:01.914Z,10.50
2023-03-18T22:45:32.246Z,10.43
2023-03-18T22:48:02.572Z,10.65
2023-03-18T22:50:32.247Z,10.57
2023-03-18T22:53:03.532Z,10.63
2023-03-18T22:55:37.085Z,10.54
2023-03-18T22:58:04.654Z,10.43
2023-03-18T23:00:43.636Z,10.49
2023-03-18T23:03:20.364Z,10.36
2023-03-18T23:05:50.477Z,10.36
2023-03-18T23:08:19.531Z,10.19
2023-03-18T23:10:48.185Z,10.30
2023-03-18T23:13:26.164Z,10.20
2023-03-18T23:15:54.079Z,10.01
2023-03-18T23:18:21.603Z,9.84
2023-03-18T23:20:50.400Z,9.82
2023-03-18T23:23:18.758Z,9.81
2023-03-18T23:25:46.645Z,9.78
2023-03-18T23:28:14.764Z,9.60
2023-03-18T23:30:43.900Z,9.60
2023-03-18T23:33:11.692Z,9.54
2023-03-18T23:35:39.538Z,9.54
2023-03-18T23:38:07.307Z,9.55
2023-03-18T23:40:34.635Z,9.52
2023-03-18T23:43:02.101Z,9.52
2023-03-18T23:45:29.717Z,9.54
2023-03-18T23:47:57.574Z,9.48
2023-03-18T23:50:24.930Z,9.49
2023-03-18T23:52:52.363Z,9.41
2023-03-18T23:55:45.464Z,9.53
2023-03-18T23:58:07.199Z,9.52
